Time;durP1;ratioP1;P1;durP2;ratioP2;P2;SDS_P1;SDS_P2;PMS_P1;PMS_P2;Temp;Humidity;BMP_temperature;BMP_pressure;BME280_temperature;BME280_humidity;BME280_pressure;Samples;Min_cycle;Max_cycle;Signal;HPM_P1;HPM_P2
2021/07/21 00:00:45;;;;;;;7.30;6.57;;;25.00;73.00;;;;;;4973692;28;20208;-65
2021/07/21 00:03:12;;;;;;;6.82;6.13;;;25.00;73.00;;;;;;4974774;28;20207;-65
2021/07/21 00:05:38;;;;;;;7.10;6.40;;;25.00;73.00;;;;;;4974387;28;20272;-66
2021/07/21 00:08:05;;;;;;;6.82;6.10;;;25.00;73.00;;;;;;4973408;28;20224;-66
2021/07/21 00:10:32;;;;;;;8.15;7.03;;;25.00;73.10;;;;;;4972755;28;20200;-65
2021/07/21 00:15:46;;;;;;;6.45;5.85;;;25.00;72.90;;;;;;4973995;28;20259;-65
2021/07/21 00:18:18;;;;;;;7.10;6.40;;;25.00;73.00;;;;;;4970075;28;20224;-65
2021/07/21 00:20:45;;;;;;;6.63;5.85;;;25.00;73.00;;;;;;4973287;28;20323;-65
2021/07/21 00:23:12;;;;;;;6.90;6.20;;;25.00;73.00;;;;;;4973994;28;20219;-65
2021/07/21 00:25:38;;;;;;;6.40;5.80;;;25.00;73.00;;;;;;4972772;28;20216;-65
2021/07/21 00:28:05;;;;;;;7.18;6.47;;;25.00;72.90;;;;;;4974124;28;20221;-65
2021/07/21 00:30:31;;;;;;;6.68;5.97;;;25.00;72.80;;;;;;4972635;28;20206;-65
2021/07/21 00:32:57;;;;;;;6.68;6.07;;;25.00;72.80;;;;;;4968311;28;20201;-65
2021/07/21 00:35:24;;;;;;;6.90;6.20;;;25.00;72.80;;;;;;4972233;28;20240;-65
2021/07/21 00:37:50;;;;;;;6.90;6.13;;;25.00;72.90;;;;;;4973823;28;20355;-65
2021/07/21 00:40:17;;;;;;;7.40;6.50;;;25.00;72.80;;;;;;4972660;28;20202;-65
2021/07/21 00:42:43;;;;;;;6.45;5.85;;;25.00;72.80;;;;;;4973921;28;20215;-65
2021/07/21 00:45:10;;;;;;;6.47;5.95;;;25.00;72.80;;;;;;4973355;28;20272;-65
2021/07/21 00:47:36;;;;;;;6.60;6.00;;;25.00;72.70;;;;;;4973512;28;20510;-65
2021/07/21 00:50:02;;;;;;;7.32;6.43;;;25.00;72.70;;;;;;4973510;28;20291;-65
2021/07/21 00:52:29;;;;;;;6.60;5.93;;;25.00;72.70;;;;;;4973164;28;20204;-65
2021/07/21 00:54:55;;;;;;;6.20;5.60;;;25.00;72.80;;;;;;4973333;28;20243;-64
2021/07/21 00:57:22;;;;;;;6.60;5.97;;;25.00;72.90;;;;;;4972573;28;20204;-65
2021/07/21 00:59:48;;;;;;;7.15;6.45;;;25.00;72.80;;;;;;4972905;28;20205;-62
2021/07/21 01:02:16;;;;;;;6.47;5.90;;;25.00;72.80;;;;;;4972604;28;20196;-65
2021/07/21 01:04:42;;;;;;;6.68;5.97;;;25.00;73.00;;;;;;4973290;28;20703;-65
2021/07/21 01:07:09;;;;;;;7.38;6.68;;;25.00;73.00;;;;;;4984820;28;20687;-65
2021/07/21 01:09:35;;;;;;;6.78;6.18;;;25.00;73.00;;;;;;4973262;28;20286;-65
2021/07/21 01:12:02;;;;;;;7.55;6.75;;;25.00;73.10;;;;;;4972922;28;20287;-65
2021/07/21 01:14:28;;;;;;;6.82;6.13;;;25.00;73.00;;;;;;4970604;28;20231;-65
2021/07/21 01:16:55;;;;;;;6.35;5.75;;;25.00;73.00;;;;;;4972008;28;20205;-65
2021/07/21 01:19:21;;;;;;;6.43;5.82;;;25.00;72.90;;;;;;4971268;28;20289;-65
2021/07/21 01:21:47;;;;;;;6.20;5.60;;;25.00;73.00;;;;;;4972160;28;20283;-65
2021/07/21 01:24:14;;;;;;;6.72;6.00;;;25.00;73.00;;;;;;4973280;28;20205;-65
2021/07/21 01:26:45;;;;;;;6.72;6.05;;;25.00;73.00;;;;;;4972852;28;20195;-65
2021/07/21 01:29:12;;;;;;;6.18;5.57;;;25.00;72.90;;;;;;4972161;28;20256;-65
2021/07/21 01:31:38;;;;;;;6.93;6.25;;;25.00;72.90;;;;;;4972018;28;20267;-65
2021/07/21 01:34:05;;;;;;;6.95;6.25;;;25.00;72.90;;;;;;4972408;28;20312;-65
2021/07/21 01:36:31;;;;;;;6.75;6.15;;;25.00;72.90;;;;;;4972170;28;20231;-65
2021/07/21 01:38:57;;;;;;;6.53;5.93;;;25.00;72.90;;;;;;4971585;28;20221;-65
2021/07/21 01:41:24;;;;;;;7.03;6.32;;;25.00;72.90;;;;;;4972108;28;20227;-65
2021/07/21 01:43:50;;;;;;;6.38;5.68;;;25.00;72.90;;;;;;4972435;28;20657;-65
2021/07/21 01:46:17;;;;;;;6.68;6.07;;;25.00;73.00;;;;;;4972508;28;20661;-64
2021/07/21 01:48:43;;;;;;;6.65;5.97;;;25.00;73.00;;;;;;4971740;28;20735;-65
2021/07/21 01:51:10;;;;;;;6.30;5.70;;;24.90;72.80;;;;;;4971976;28;20617;-64
2021/07/21 01:53:36;;;;;;;6.60;6.00;;;25.00;72.80;;;;;;4972073;28;20610;-64
2021/07/21 01:56:03;;;;;;;6.85;6.15;;;24.90;72.80;;;;;;4972348;28;20709;-64
2021/07/21 01:58:29;;;;;;;6.90;6.22;;;24.90;72.80;;;;;;4972170;28;20697;-65
2021/07/21 02:00:56;;;;;;;8.05;5.55;;;25.00;72.80;;;;;;4971809;28;20535;-65
2021/07/21 02:03:22;;;;;;;6.20;5.60;;;24.90;72.70;;;;;;4971522;28;20306;-64
2021/07/21 02:05:49;;;;;;;6.55;5.95;;;24.90;72.70;;;;;;4971653;28;20200;-64
2021/07/21 02:08:15;;;;;;;6.00;5.40;;;24.90;72.70;;;;;;4972121;28;20224;-65
2021/07/21 02:10:42;;;;;;;6.22;5.63;;;24.90;72.70;;;;;;4971587;28;20230;-64
2021/07/21 02:13:10;;;;;;;6.30;5.70;;;25.00;72.80;;;;;;4971525;28;20193;-64
2021/07/21 02:15:37;;;;;;;6.22;5.63;;;24.90;72.70;;;;;;4972006;28;20232;-65
2021/07/21 02:18:03;;;;;;;6.43;5.68;;;24.90;72.70;;;;;;4969511;28;20220;-64
2021/07/21 02:20:30;;;;;;;6.28;5.68;;;24.90;72.80;;;;;;4969320;28;20205;-64
2021/07/21 02:22:56;;;;;;;6.45;5.85;;;24.90;72.80;;;;;;4971645;28;20201;-64
2021/07/21 02:25:22;;;;;;;6.47;5.88;;;24.90;72.80;;;;;;4971334;28;20201;-64
2021/07/21 02:27:49;;;;;;;6.50;5.90;;;24.90;72.70;;;;;;4971900;28;20227;-65
2021/07/21 02:30:15;;;;;;;5.97;5.47;;;24.90;72.80;;;;;;4971240;28;20196;-65
2021/07/21 02:32:42;;;;;;;6.75;5.60;;;24.90;72.70;;;;;;4971983;28;20300;-65
2021/07/21 02:35:08;;;;;;;6.35;5.75;;;24.90;72.60;;;;;;4970257;28;20220;-64
2021/07/21 02:37:35;;;;;;;6.55;5.65;;;24.90;72.60;;;;;;4969912;28;20228;-64
2021/07/21 02:40:01;;;;;;;6.47;5.88;;;24.90;72.80;;;;;;4971672;28;20207;-64
2021/07/21 02:42:28;;;;;;;6.47;5.78;;;24.90;72.80;;;;;;4971893;28;20294;-66
2021/07/21 02:44:54;;;;;;;6.35;5.75;;;24.90;72.70;;;;;;4971583;28;20211;-65
2021/07/21 02:47:21;;;;;;;7.00;6.30;;;24.90;72.80;;;;;;4971742;28;20226;-63
2021/07/21 02:49:47;;;;;;;5.75;5.20;;;24.90;72.70;;;;;;4978932;28;20219;-65
2021/07/21 02:52:14;;;;;;;6.28;5.68;;;24.90;72.70;;;;;;4971834;28;20291;-64
2021/07/21 02:54:40;;;;;;;6.47;5.88;;;24.90;72.70;;;;;;4971405;28;20356;-64
2021/07/21 02:57:07;;;;;;;6.47;5.68;;;24.90;72.70;;;;;;4969137;28;20227;-65
2021/07/21 02:59:33;;;;;;;6.30;5.70;;;24.90;72.70;;;;;;4969923;28;20204;-64
2021/07/21 03:02:00;;;;;;;6.85;5.50;;;24.90;72.70;;;;;;4971584;28;20204;-64
2021/07/21 03:04:26;;;;;;;6.45;5.85;;;24.90;72.60;;;;;;4971518;28;20212;-65
2021/07/21 03:06:52;;;;;;;6.03;5.50;;;24.90;72.60;;;;;;4972020;28;20234;-64
2021/07/21 03:09:19;;;;;;;5.80;5.22;;;24.90;72.70;;;;;;4971139;28;20280;-64
2021/07/21 03:11:45;;;;;;;6.38;5.78;;;24.90;72.60;;;;;;4971233;28;20211;-65
2021/07/21 03:14:12;;;;;;;5.90;5.40;;;24.90;72.60;;;;;;4970873;28;20208;-65
2021/07/21 03:16:44;;;;;;;6.20;5.60;;;24.90;72.70;;;;;;4970209;28;20234;-64
2021/07/21 03:19:11;;;;;;;6.55;5.95;;;24.90;72.60;;;;;;4971177;28;20208;-65
2021/07/21 03:21:37;;;;;;;6.70;6.00;;;24.90;72.70;;;;;;4969892;28;20192;-65
2021/07/21 03:24:04;;;;;;;6.55;5.95;;;24.90;72.80;;;;;;4971570;28;20211;-65
2021/07/21 03:26:30;;;;;;;6.53;5.45;;;24.90;72.80;;;;;;4970745;28;20300;-65
2021/07/21 03:28:56;;;;;;;6.35;5.75;;;24.90;72.70;;;;;;4970342;28;20729;-65
2021/07/21 03:31:23;;;;;;;6.07;5.50;;;24.90;72.70;;;;;;4970456;28;20653;-65
2021/07/21 03:33:49;;;;;;;5.82;5.32;;;24.90;72.70;;;;;;4971415;28;20665;-65
2021/07/21 03:36:16;;;;;;;6.05;5.55;;;24.90;72.70;;;;;;4969708;28;20723;-65
2021/07/21 03:38:43;;;;;;;5.68;5.18;;;24.90;72.80;;;;;;4969673;28;20232;-62
2021/07/21 03:41:09;;;;;;;7.22;5.57;;;24.90;72.70;;;;;;4970046;28;20223;-65
2021/07/21 03:43:36;;;;;;;5.82;5.05;;;24.90;72.70;;;;;;4970995;28;20196;-64
2021/07/21 03:46:02;;;;;;;6.35;5.07;;;24.90;72.70;;;;;;4971374;28;20218;-64
2021/07/21 03:48:28;;;;;;;5.60;5.10;;;24.90;72.80;;;;;;4969744;28;20300;-65
2021/07/21 03:50:55;;;;;;;5.90;5.30;;;24.90;72.80;;;;;;4971056;28;20748;-64
2021/07/21 03:53:21;;;;;;;6.25;5.65;;;24.90;72.90;;;;;;4970852;28;20228;-64
2021/07/21 03:55:48;;;;;;;6.18;5.57;;;24.90;73.00;;;;;;4971731;28;20228;-65
2021/07/21 03:58:14;;;;;;;6.38;5.78;;;24.90;72.90;;;;;;4970298;28;20251;-65
2021/07/21 04:00:41;;;;;;;6.50;5.90;;;24.90;72.90;;;;;;4970856;28;20223;-66
2021/07/21 04:03:07;;;;;;;5.75;5.25;;;24.90;72.90;;;;;;4973682;28;20291;-66
2021/07/21 04:05:34;;;;;;;5.90;5.30;;;24.90;72.90;;;;;;4974881;28;20219;-64
2021/07/21 04:08:00;;;;;;;6.30;5.70;;;24.90;73.60;;;;;;4974065;28;20220;-64
2021/07/21 04:10:26;;;;;;;5.68;5.18;;;24.90;72.90;;;;;;4974132;28;20200;-64
2021/07/21 04:12:53;;;;;;;6.35;5.72;;;24.90;72.80;;;;;;4974188;28;20756;-64
2021/07/21 04:15:21;;;;;;;6.22;5.43;;;24.90;72.80;;;;;;4973238;28;20586;-65
2021/07/21 04:17:47;;;;;;;6.32;5.72;;;24.90;72.80;;;;;;4973377;28;20235;-64
2021/07/21 04:20:14;;;;;;;5.72;5.20;;;24.90;73.50;;;;;;4969537;28;20215;-64
2021/07/21 04:22:40;;;;;;;5.70;5.20;;;24.90;72.80;;;;;;4973027;28;20197;-64
2021/07/21 04:25:07;;;;;;;6.43;5.82;;;24.90;72.80;;;;;;4973630;28;20223;-65
2021/07/21 04:27:33;;;;;;;6.10;5.50;;;24.90;72.70;;;;;;4973674;28;20227;-64
2021/07/21 04:30:00;;;;;;;6.03;5.43;;;24.90;72.60;;;;;;4973695;28;20210;-64
2021/07/21 04:32:28;;;;;;;6.03;5.43;;;24.90;73.30;;;;;;4973992;28;20307;-64
2021/07/21 04:34:54;;;;;;;5.68;5.18;;;24.90;72.70;;;;;;4973617;28;20223;-65
2021/07/21 04:37:21;;;;;;;5.38;4.88;;;24.90;72.70;;;;;;4973667;28;20240;-64
2021/07/21 04:39:47;;;;;;;6.35;5.75;;;24.90;72.70;;;;;;4973129;28;20208;-65
2021/07/21 04:42:14;;;;;;;5.72;5.22;;;24.90;72.60;;;;;;4973368;28;20211;-65
2021/07/21 04:44:40;;;;;;;6.03;5.53;;;24.90;72.60;;;;;;4973796;28;20287;-64
2021/07/21 04:47:07;;;;;;;5.60;5.10;;;24.90;72.60;;;;;;4973991;28;20232;-65
2021/07/21 04:49:33;;;;;;;6.60;5.95;;;24.90;72.50;;;;;;4972432;28;20201;-64
2021/07/21 04:52:00;;;;;;;6.28;5.57;;;24.90;72.60;;;;;;4973260;28;20291;-64
2021/07/21 04:54:28;;;;;;;6.35;5.75;;;24.90;72.60;;;;;;4973514;28;20230;-63
2021/07/21 04:56:54;;;;;;;6.20;5.60;;;24.90;72.60;;;;;;4972591;28;20241;-64
2021/07/21 04:59:21;;;;;;;5.68;5.18;;;24.90;72.50;;;;;;4971930;28;20650;-64
2021/07/21 05:01:48;;;;;;;5.85;5.25;;;24.90;72.50;;;;;;4972448;28;20668;-64
2021/07/21 05:04:14;;;;;;;5.32;4.82;;;24.90;72.60;;;;;;4973455;28;20201;-64
2021/07/21 05:06:41;;;;;;;6.15;5.63;;;24.90;72.50;;;;;;4972859;28;20220;-64
2021/07/21 05:09:07;;;;;;;5.75;5.22;;;24.90;72.60;;;;;;4972616;28;20697;-64
2021/07/21 05:11:34;;;;;;;5.60;5.10;;;24.90;72.50;;;;;;4972981;28;20648;-64
2021/07/21 05:14:00;;;;;;;7.10;5.60;;;24.90;72.50;;;;;;4972089;28;20531;-65
2021/07/21 05:16:26;;;;;;;6.40;5.40;;;24.90;72.50;;;;;;4972452;28;20696;-64
2021/07/21 05:18:53;;;;;;;5.80;5.25;;;24.90;72.60;;;;;;4970446;28;20846;-64
2021/07/21 05:21:19;;;;;;;5.82;5.22;;;24.90;72.50;;;;;;4976895;28;20668;-64
2021/07/21 05:23:46;;;;;;;5.68;5.18;;;24.90;72.60;;;;;;4974567;28;20653;-65
2021/07/21 05:26:12;;;;;;;5.72;4.93;;;24.90;72.50;;;;;;4973252;28;20633;-65
2021/07/21 05:28:39;;;;;;;6.10;5.50;;;24.90;72.50;;;;;;4972234;28;20204;-65
2021/07/21 05:31:06;;;;;;;5.90;5.22;;;24.90;72.60;;;;;;4971933;28;20692;-64
2021/07/21 05:33:32;;;;;;;6.03;5.43;;;24.90;72.60;;;;;;4971953;28;20666;-64
2021/07/21 05:35:58;;;;;;;5.40;4.90;;;24.90;72.60;;;;;;4972093;28;20220;-65
2021/07/21 05:38:25;;;;;;;5.70;5.20;;;24.90;72.50;;;;;;4972569;28;20240;-65
2021/07/21 05:40:51;;;;;;;5.40;4.90;;;24.90;72.60;;;;;;4972406;28;20204;-65
2021/07/21 05:43:18;;;;;;;5.75;5.18;;;24.90;72.50;;;;;;4972288;28;20204;-65
2021/07/21 05:45:44;;;;;;;5.70;5.20;;;24.90;72.50;;;;;;4972613;28;20217;-65
2021/07/21 05:48:11;;;;;;;5.70;5.10;;;24.90;72.50;;;;;;4972056;28;20226;-65
2021/07/21 05:50:37;;;;;;;5.70;5.10;;;24.90;72.50;;;;;;4971515;28;20200;-65
2021/07/21 05:53:04;;;;;;;5.70;5.15;;;24.90;72.50;;;;;;4972248;28;20200;-65
2021/07/21 05:55:31;;;;;;;5.70;5.07;;;24.90;72.50;;;;;;4977054;28;20196;-65
2021/07/21 05:57:57;;;;;;;6.20;5.60;;;24.90;72.50;;;;;;4971475;28;20236;-65
2021/07/21 06:00:24;;;;;;;5.25;4.38;;;24.90;72.50;;;;;;4971354;28;20203;-65
2021/07/21 06:02:50;;;;;;;5.53;5.03;;;24.90;72.50;;;;;;4971599;28;20196;-65
2021/07/21 06:05:17;;;;;;;5.65;5.15;;;24.90;72.50;;;;;;4972191;28;20215;-64
2021/07/21 06:07:43;;;;;;;5.82;5.22;;;24.90;72.50;;;;;;4972027;28;20552;-65
2021/07/21 06:10:09;;;;;;;5.65;5.07;;;24.90;72.50;;;;;;4971627;28;20200;-65
2021/07/21 06:12:36;;;;;;;5.55;5.03;;;24.90;72.40;;;;;;4972242;28;20306;-65
2021/07/21 06:15:03;;;;;;;5.85;5.28;;;24.90;73.30;;;;;;4971813;28;20209;-66
2021/07/21 06:17:29;;;;;;;5.70;5.15;;;24.90;72.50;;;;;;4970913;28;20673;-64
2021/07/21 06:19:56;;;;;;;4.82;4.43;;;24.90;72.50;;;;;;4967495;28;20536;-65
2021/07/21 06:22:22;;;;;;;5.78;5.20;;;24.90;72.50;;;;;;4968640;28;20228;-65
2021/07/21 06:24:48;;;;;;;7.00;5.35;;;24.90;72.50;;;;;;4971902;28;20258;-64
2021/07/21 06:27:15;;;;;;;5.30;4.80;;;24.90;72.50;;;;;;4971533;28;20311;-65
2021/07/21 06:29:42;;;;;;;5.40;4.90;;;24.90;72.50;;;;;;4972070;28;20304;-64
2021/07/21 06:32:08;;;;;;;6.22;5.60;;;24.90;72.50;;;;;;4971530;28;20200;-64
2021/07/21 06:34:35;;;;;;;6.00;5.45;;;24.90;72.60;;;;;;4970739;28;20232;-64
2021/07/21 06:37:01;;;;;;;5.30;4.80;;;24.90;72.50;;;;;;4970253;28;20236;-65
2021/07/21 06:39:28;;;;;;;5.43;4.93;;;24.90;72.40;;;;;;4971214;28;20244;-64
2021/07/21 06:41:54;;;;;;;5.88;5.28;;;24.90;72.40;;;;;;4971194;28;20208;-64
2021/07/21 06:44:20;;;;;;;6.03;5.20;;;24.90;72.50;;;;;;4971218;28;20212;-64
2021/07/21 06:46:47;;;;;;;4.93;4.43;;;24.90;72.50;;;;;;4980457;28;20240;-64
2021/07/21 06:49:13;;;;;;;5.78;5.20;;;24.90;72.50;;;;;;4976157;28;20209;-64
2021/07/21 06:51:40;;;;;;;5.93;5.10;;;24.90;72.50;;;;;;4971067;28;20233;-64
2021/07/21 06:54:06;;;;;;;5.03;4.60;;;24.90;72.50;;;;;;4970937;28;20210;-64
2021/07/21 06:56:33;;;;;;;5.30;4.80;;;24.90;72.60;;;;;;4971060;28;20232;-64
2021/07/21 06:58:59;;;;;;;5.95;5.25;;;24.90;72.60;;;;;;4970956;28;20303;-64
2021/07/21 07:01:26;;;;;;;5.47;4.97;;;24.90;72.60;;;;;;4971750;28;20575;-66
2021/07/21 07:03:53;;;;;;;4.97;4.55;;;24.90;72.60;;;;;;4972740;28;20796;-65
2021/07/21 07:06:20;;;;;;;5.13;4.45;;;24.90;72.70;;;;;;4971124;28;20225;-64
2021/07/21 07:08:46;;;;;;;6.35;5.20;;;24.90;72.70;;;;;;4970361;28;20205;-63
2021/07/21 07:11:13;;;;;;;5.47;4.95;;;24.90;72.70;;;;;;4971480;28;20235;-65
2021/07/21 07:13:39;;;;;;;4.82;4.43;;;24.90;72.70;;;;;;4968736;28;20239;-66
2021/07/21 07:16:06;;;;;;;4.95;4.45;;;24.90;72.50;;;;;;4971743;28;20244;-63
2021/07/21 07:18:32;;;;;;;5.10;4.70;;;24.90;72.80;;;;;;4970354;28;20848;-66
2021/07/21 07:20:59;;;;;;;5.10;4.60;;;24.90;73.00;;;;;;4980849;28;20577;-65
2021/07/21 07:23:25;;;;;;;5.25;4.30;;;24.90;73.00;;;;;;4988014;28;20578;-65
2021/07/21 07:25:52;;;;;;;4.97;4.45;;;25.00;73.90;;;;;;4971081;28;20670;-65
2021/07/21 07:28:18;;;;;;;5.28;4.78;;;24.90;73.30;;;;;;4971053;28;20200;-66
2021/07/21 07:30:44;;;;;;;5.13;4.63;;;25.00;73.50;;;;;;4970167;28;20197;-65
2021/07/21 07:33:11;;;;;;;5.93;4.45;;;25.00;73.50;;;;;;4970286;28;20211;-63
2021/07/21 07:35:39;;;;;;;5.50;4.40;;;25.00;73.60;;;;;;4971082;28;20207;-62
2021/07/21 07:38:07;;;;;;;6.22;4.57;;;25.00;73.60;;;;;;4974415;28;20327;-62
2021/07/21 07:40:33;;;;;;;5.63;4.65;;;25.00;74.00;;;;;;4973835;28;20234;-63
2021/07/21 07:43:00;;;;;;;6.65;4.63;;;25.00;73.90;;;;;;4974958;28;20208;-61
2021/07/21 07:45:26;;;;;;;10.77;5.53;;;25.00;74.00;;;;;;4970530;28;20272;-60
2021/07/21 07:47:53;;;;;;;8.10;6.35;;;24.90;74.20;;;;;;4971906;28;20236;-60
2021/07/21 07:50:19;;;;;;;17.38;7.75;;;24.90;72.00;;;;;;4974204;28;20203;-64
2021/07/21 07:52:46;;;;;;;14.65;8.50;;;24.60;68.40;;;;;;4973742;28;20235;-66
2021/07/21 07:55:12;;;;;;;10.82;7.80;;;24.40;65.50;;;;;;4974941;28;20215;-62
2021/07/21 07:57:39;;;;;;;11.50;7.57;;;24.40;67.90;;;;;;4971523;28;20232;-63
2021/07/21 08:00:05;;;;;;;9.75;7.40;;;24.50;68.40;;;;;;4968965;28;20204;-62
2021/07/21 08:02:31;;;;;;;8.52;7.50;;;24.60;68.70;;;;;;4973924;28;20196;-63
2021/07/21 08:04:58;;;;;;;13.32;7.35;;;24.70;69.00;;;;;;4974023;28;20207;-63
2021/07/21 08:07:25;;;;;;;7.55;6.60;;;24.80;69.60;;;;;;4960807;28;20324;-63
2021/07/21 08:09:52;;;;;;;9.32;7.63;;;24.80;70.20;;;;;;4973235;28;20283;-63
2021/07/21 08:12:18;;;;;;;8.52;7.38;;;24.90;70.50;;;;;;4974553;28;20267;-63
2021/07/21 08:14:45;;;;;;;7.93;7.13;;;24.90;70.70;;;;;;4973794;28;20212;-64
2021/07/21 08:17:11;;;;;;;9.18;6.65;;;24.90;70.70;;;;;;4973277;28;20240;-62
2021/07/21 08:19:39;;;;;;;7.90;7.07;;;24.90;70.90;;;;;;4973466;28;20224;-62
2021/07/21 08:22:06;;;;;;;7.60;6.63;;;24.90;71.00;;;;;;4973613;28;20200;-62
2021/07/21 08:24:33;;;;;;;8.55;7.07;;;24.90;71.20;;;;;;4974082;28;20209;-62
2021/07/21 08:26:59;;;;;;;8.50;6.63;;;25.00;71.20;;;;;;4973063;28;20224;-61
2021/07/21 08:29:26;;;;;;;8.00;7.20;;;25.00;71.30;;;;;;4974051;28;20210;-61
2021/07/21 08:31:52;;;;;;;9.80;7.43;;;25.00;71.40;;;;;;4969521;28;20205;-63
2021/07/21 08:34:18;;;;;;;9.35;7.10;;;25.00;71.70;;;;;;4958682;28;20197;-63
2021/07/21 08:36:45;;;;;;;7.78;6.97;;;25.00;72.10;;;;;;4968088;28;20236;-66
2021/07/21 08:39:12;;;;;;;8.13;7.25;;;25.00;72.10;;;;;;4972870;28;20212;-63
2021/07/21 08:41:39;;;;;;;12.25;7.97;;;25.00;72.10;;;;;;4971821;28;20200;-63
2021/07/21 08:44:05;;;;;;;8.15;7.13;;;25.10;72.20;;;;;;4972950;28;20207;-64
2021/07/21 08:46:32;;;;;;;7.65;6.75;;;25.10;72.20;;;;;;4972574;28;20311;-66
2021/07/21 08:48:58;;;;;;;8.38;6.82;;;25.10;72.20;;;;;;4971570;28;20626;-65
2021/07/21 08:51:25;;;;;;;10.18;7.05;;;25.10;72.20;;;;;;4972434;28;20276;-59
2021/07/21 08:53:51;;;;;;;9.45;7.00;;;25.10;72.20;;;;;;4973109;28;20201;-65
2021/07/21 08:56:18;;;;;;;8.60;7.57;;;25.10;72.20;;;;;;4972320;28;20224;-61
2021/07/21 08:58:44;;;;;;;8.77;7.20;;;25.10;72.20;;;;;;4969177;28;20215;-60
2021/07/21 09:01:11;;;;;;;8.73;6.82;;;25.10;72.90;;;;;;4972258;28;20212;-68
2021/07/21 09:03:37;;;;;;;10.00;7.03;;;25.10;72.20;;;;;;4972953;28;20721;-62
2021/07/21 09:06:03;;;;;;;8.68;7.05;;;25.20;71.70;;;;;;4972179;28;20235;-61
2021/07/21 09:08:32;;;;;;;8.63;7.13;;;25.20;71.80;;;;;;4970227;28;20207;-61
2021/07/21 09:10:59;;;;;;;8.82;6.43;;;25.20;72.30;;;;;;4972409;28;20211;-60
2021/07/21 09:13:25;;;;;;;11.38;6.60;;;25.20;72.30;;;;;;4973379;28;20210;-61
2021/07/21 09:15:52;;;;;;;8.93;7.13;;;25.10;72.20;;;;;;4972825;28;20256;-60
2021/07/21 09:18:18;;;;;;;8.50;7.30;;;25.20;72.00;;;;;;4962498;28;20232;-58
2021/07/21 09:20:45;;;;;;;9.13;6.97;;;25.20;72.10;;;;;;4969577;28;20757;-59
2021/07/21 09:23:11;;;;;;;9.02;6.82;;;25.20;72.20;;;;;;4972544;28;20299;-60
2021/07/21 09:25:38;;;;;;;7.00;6.30;;;25.20;72.10;;;;;;4972882;28;20238;-60
2021/07/21 09:28:04;;;;;;;6.97;5.88;;;25.20;72.20;;;;;;4972440;28;20211;-61
2021/07/21 09:30:30;;;;;;;7.95;6.75;;;25.20;72.30;;;;;;4971751;28;20232;-60
2021/07/21 09:32:57;;;;;;;10.82;6.60;;;25.20;72.20;;;;;;4972650;28;20215;-60
2021/07/21 09:35:23;;;;;;;7.95;6.80;;;25.20;72.30;;;;;;4972571;28;20719;-60
2021/07/21 09:37:50;;;;;;;9.95;6.50;;;25.20;72.30;;;;;;4972687;28;20719;-60
2021/07/21 09:40:17;;;;;;;7.47;6.03;;;25.20;72.30;;;;;;4971093;28;20627;-61
2021/07/21 09:42:43;;;;;;;7.70;6.72;;;25.20;72.30;;;;;;4971973;28;20295;-61
2021/07/21 09:45:10;;;;;;;6.65;5.95;;;25.20;72.30;;;;;;4971892;28;20209;-61
2021/07/21 09:47:39;;;;;;;7.63;6.93;;;25.20;72.20;;;;;;4971763;28;20665;-61
2021/07/21 09:50:06;;;;;;;7.22;6.40;;;25.20;72.30;;;;;;4971520;28;20200;-61
2021/07/21 09:52:32;;;;;;;7.22;6.53;;;25.20;72.30;;;;;;4972123;28;20201;-61
2021/07/21 09:54:58;;;;;;;6.75;5.93;;;25.20;72.30;;;;;;4967693;28;20300;-61
2021/07/21 09:57:25;;;;;;;6.60;5.95;;;25.20;72.30;;;;;;4954354;28;20255;-61
2021/07/21 09:59:51;;;;;;;7.47;5.70;;;25.20;72.30;;;;;;4969390;28;20213;-61
2021/07/21 10:02:18;;;;;;;6.93;6.22;;;25.20;72.30;;;;;;4971815;28;20205;-61
2021/07/21 10:04:46;;;;;;;7.25;6.38;;;25.20;72.30;;;;;;4970929;28;20218;-61
2021/07/21 10:07:39;;;;;;;7.40;6.65;;;25.20;72.20;;;;;;4971628;28;20228;-61
2021/07/21 10:10:05;;;;;;;7.22;6.47;;;25.20;72.30;;;;;;4974226;28;20605;-61
2021/07/21 10:12:32;;;;;;;7.10;6.40;;;25.20;72.30;;;;;;4991404;28;20521;-61
2021/07/21 10:14:58;;;;;;;6.75;6.05;;;25.20;72.30;;;;;;4991049;28;20652;-61
2021/07/21 10:17:25;;;;;;;6.55;5.95;;;25.10;72.20;;;;;;4980835;28;20316;-60
2021/07/21 10:19:51;;;;;;;6.65;5.95;;;25.20;72.30;;;;;;4964902;28;20205;-57
2021/07/21 10:22:18;;;;;;;10.00;7.07;;;25.20;72.30;;;;;;4971573;28;20204;-64
2021/07/21 10:24:44;;;;;;;7.15;6.45;;;25.20;72.30;;;;;;4971750;28;20230;-63
2021/07/21 10:27:11;;;;;;;8.10;6.70;;;25.20;72.30;;;;;;4971784;28;20234;-65
2021/07/21 10:29:37;;;;;;;6.88;6.18;;;25.20;72.30;;;;;;4970640;28;20276;-68
2021/07/21 10:32:03;;;;;;;6.95;6.25;;;25.20;72.30;;;;;;4971288;28;20208;-64
2021/07/21 10:34:30;;;;;;;8.05;6.53;;;25.20;72.20;;;;;;4970705;28;20207;-62
2021/07/21 10:36:57;;;;;;;7.15;6.43;;;25.20;72.30;;;;;;4963712;28;20243;-63
2021/07/21 10:39:23;;;;;;;7.03;6.30;;;25.20;72.30;;;;;;4968867;28;20200;-64
2021/07/21 10:41:50;;;;;;;7.63;6.88;;;25.20;72.20;;;;;;4971517;28;20201;-63
2021/07/21 10:44:16;;;;;;;6.85;6.10;;;25.20;72.30;;;;;;4971830;28;20231;-61
2021/07/21 10:46:42;;;;;;;8.73;7.57;;;25.20;72.30;;;;;;4969763;28;20276;-60
2021/07/21 10:49:14;;;;;;;7.25;6.55;;;25.20;72.30;;;;;;4965335;28;20204;-60
2021/07/21 10:51:50;;;;;;;7.63;6.43;;;25.20;72.20;;;;;;4971212;28;20372;-60
2021/07/21 10:54:25;;;;;;;6.80;6.10;;;25.20;72.30;;;;;;4970680;28;20215;-60
2021/07/21 10:59:50;;;;;;;8.18;6.45;;;25.20;72.20;;;;;;4929399;29;20698;-60
2021/07/21 11:02:16;;;;;;;7.40;6.30;;;25.20;72.30;;;;;;4928606;29;20217;-59
2021/07/21 11:04:43;;;;;;;7.55;6.80;;;25.20;72.30;;;;;;4944222;28;20196;-59
2021/07/21 11:07:09;;;;;;;8.98;7.13;;;25.20;72.30;;;;;;4971245;28;20212;-61
2021/07/21 11:09:38;;;;;;;7.47;6.40;;;25.20;72.20;;;;;;4970569;28;20243;-61
2021/07/21 11:12:04;;;;;;;7.93;7.20;;;25.20;72.30;;;;;;4974431;28;20209;-61
2021/07/21 11:14:32;;;;;;;7.18;6.47;;;25.20;72.30;;;;;;4974688;28;20636;-61
2021/07/21 11:16:59;;;;;;;8.13;6.88;;;25.20;72.30;;;;;;4974873;28;20200;-61
2021/07/21 11:19:25;;;;;;;6.57;5.85;;;25.20;72.30;;;;;;4975287;28;20299;-60
2021/07/21 11:21:52;;;;;;;7.05;6.35;;;25.20;72.30;;;;;;4974569;28;20620;-61
2021/07/21 11:24:18;;;;;;;7.15;6.45;;;25.20;72.30;;;;;;4974973;28;20522;-61
2021/07/21 11:26:45;;;;;;;8.82;6.85;;;25.20;72.30;;;;;;4974607;28;20700;-60
2021/07/21 11:29:12;;;;;;;7.07;6.32;;;25.20;72.30;;;;;;4965602;28;20228;-60
2021/07/21 11:31:38;;;;;;;7.47;6.78;;;25.20;72.30;;;;;;4967888;28;20205;-60
2021/07/21 11:34:05;;;;;;;8.52;6.70;;;25.20;72.30;;;;;;4974350;28;20713;-61
2021/07/21 11:36:31;;;;;;;10.35;8.48;;;25.20;72.30;;;;;;4987298;28;20668;-60
2021/07/21 11:38:58;;;;;;;12.23;9.45;;;25.20;72.30;;;;;;4973850;28;20246;-59
2021/07/21 11:41:24;;;;;;;13.00;9.75;;;25.20;72.30;;;;;;4974356;28;20634;-59
2021/07/21 11:43:50;;;;;;;14.07;10.43;;;25.20;72.30;;;;;;4974754;28;20570;-59
2021/07/21 11:46:17;;;;;;;13.45;10.55;;;25.20;72.30;;;;;;4974410;28;20590;-60
2021/07/21 11:48:43;;;;;;;13.20;11.32;;;25.20;72.30;;;;;;4973944;28;20255;-60
2021/07/21 11:51:10;;;;;;;15.35;12.32;;;25.30;72.40;;;;;;4973682;28;20299;-60
2021/07/21 11:53:36;;;;;;;15.32;11.65;;;25.20;72.30;;;;;;4971729;28;20204;-60
2021/07/21 11:56:03;;;;;;;16.27;12.60;;;25.20;72.30;;;;;;4967361;28;20370;-60
2021/07/21 11:58:29;;;;;;;17.15;12.00;;;25.30;72.30;;;;;;4970593;28;20896;-60
2021/07/21 12:00:56;;;;;;;17.20;12.52;;;25.20;72.30;;;;;;4971074;28;20574;-60
2021/07/21 12:03:23;;;;;;;13.70;11.48;;;25.20;72.30;;;;;;4973767;28;20668;-60
2021/07/21 12:05:49;;;;;;;17.25;11.68;;;25.20;72.30;;;;;;4972950;28;20234;-60
2021/07/21 12:08:16;;;;;;;12.45;10.77;;;25.20;72.30;;;;;;4972286;28;20207;-60
2021/07/21 12:10:43;;;;;;;14.80;11.23;;;25.20;72.30;;;;;;4975835;28;20212;-60
2021/07/21 12:13:09;;;;;;;12.43;10.40;;;25.20;72.30;;;;;;4972527;28;20203;-61
2021/07/21 12:15:36;;;;;;;12.93;10.48;;;25.20;72.30;;;;;;4971121;28;20761;-60
2021/07/21 12:18:02;;;;;;;11.95;10.32;;;25.20;72.20;;;;;;4972689;28;20743;-60
2021/07/21 12:20:29;;;;;;;13.93;10.43;;;25.20;72.30;;;;;;4971679;28;20690;-60
2021/07/21 12:22:55;;;;;;;13.30;10.55;;;25.20;72.20;;;;;;4972086;28;20699;-60
2021/07/21 12:25:22;;;;;;;13.15;10.05;;;25.20;72.30;;;;;;4971070;28;20236;-60
2021/07/21 12:27:49;;;;;;;12.80;10.27;;;25.20;72.30;;;;;;4975270;28;20692;-60
2021/07/21 12:30:15;;;;;;;13.57;10.10;;;25.20;72.30;;;;;;4970950;28;20208;-61
2021/07/21 12:32:43;;;;;;;11.82;9.68;;;25.20;72.30;;;;;;4973778;28;20200;-59
2021/07/21 12:35:10;;;;;;;16.10;10.32;;;25.20;72.30;;;;;;4973027;28;20256;-61
2021/07/21 12:37:38;;;;;;;12.15;8.93;;;25.20;72.30;;;;;;4973222;28;20379;-60
2021/07/21 12:40:05;;;;;;;12.68;10.02;;;25.20;72.30;;;;;;4973090;28;20208;-61
2021/07/21 12:42:31;;;;;;;11.85;8.90;;;25.20;72.30;;;;;;4972914;28;20563;-59
2021/07/21 12:44:57;;;;;;;13.05;9.60;;;25.20;72.30;;;;;;4974801;28;20224;-59
2021/07/21 12:47:24;;;;;;;16.25;9.30;;;25.20;72.30;;;;;;4973669;28;20196;-58